Time;durP1;ratioP1;P1;durP2;ratioP2;P2;SDS_P1;SDS_P2;PMS_P1;PMS_P2;Temp;Humidity;BMP_temperature;BMP_pressure;BME280_temperature;BME280_humidity;BME280_pressure;Samples;Min_cycle;Max_cycle;Signal;HPM_P1;HPM_P2
2023/07/12 00:02:44;;;;;;;14.25;11.10;;;;;;;24.76;61.49;100390.81;5569904;32;34331;-60
2023/07/12 00:05:47;;;;;;;17.02;11.30;;;;;;;24.65;62.57;100391.91;5570149;32;34441;-61
2023/07/12 00:08:49;;;;;;;13.60;10.60;;;;;;;24.75;60.70;100402.97;5570017;32;34531;-60
2023/07/12 00:11:52;;;;;;;11.85;9.40;;;;;;;24.80;59.85;100396.34;5569829;32;34312;-60
2023/07/12 00:14:54;;;;;;;13.75;10.00;;;;;;;24.76;57.81;100407.28;5569895;32;34361;-61
2023/07/12 00:17:57;;;;;;;13.45;10.10;;;;;;;24.71;58.73;100396.66;5569662;32;34339;-60
2023/07/12 00:20:59;;;;;;;14.23;9.98;;;;;;;24.59;60.18;100392.22;5569825;32;33360;-60
2023/07/12 00:24:02;;;;;;;11.50;10.20;;;;;;;24.49;60.03;100390.16;5568724;32;33731;-59
2023/07/12 00:27:09;;;;;;;11.30;9.95;;;;;;;24.59;59.54;100388.69;5570030;32;33668;-59
2023/07/12 00:30:16;;;;;;;13.95;9.60;;;;;;;24.77;59.13;100399.87;5570015;32;34496;-59
2023/07/12 00:33:19;;;;;;;16.52;10.30;;;;;;;24.54;62.62;100405.50;5569865;32;33656;-59
2023/07/12 00:36:27;;;;;;;13.62;10.05;;;;;;;24.46;60.22;100410.06;5569926;32;34455;-59
2023/07/12 00:39:32;;;;;;;13.07;10.88;;;;;;;24.47;59.68;100397.16;5569750;32;33633;-60
2023/07/12 00:42:39;;;;;;;12.60;10.07;;;;;;;24.49;59.31;100403.06;5569566;32;34237;-59
2023/07/12 00:45:44;;;;;;;13.48;9.95;;;;;;;24.55;59.73;100396.87;5569676;32;34451;-59
2023/07/12 00:48:47;;;;;;;14.63;10.25;;;;;;;24.56;58.52;100384.75;5569742;32;33859;-60
2023/07/12 00:52:11;;;;;;;16.80;9.98;;;;;;;24.57;58.27;100388.28;5569610;32;33665;-59
2023/07/12 01:04:02;;;;;;;16.35;9.65;;;;;;;24.73;56.91;100393.53;5547110;32;34914;-59
2023/07/12 01:07:06;;;;;;;11.20;9.60;;;;;;;24.67;57.06;100386.81;5547122;32;34192;-60
2023/07/12 01:10:08;;;;;;;14.63;9.10;;;;;;;24.64;57.05;100380.16;5547259;32;33817;-59
2023/07/12 01:13:11;;;;;;;13.73;9.48;;;;;;;24.60;57.00;100377.38;5547370;32;34345;-60
2023/07/12 01:16:17;;;;;;;10.68;9.57;;;;;;;24.63;56.46;100369.53;5546995;32;34376;-59
2023/07/12 01:19:19;;;;;;;14.23;9.95;;;;;;;24.66;56.56;100355.09;5547191;32;33804;-60
2023/07/12 01:22:22;;;;;;;11.48;9.35;;;;;;;24.63;56.69;100364.84;5547196;32;33645;-59
2023/07/12 01:25:38;;;;;;;10.85;8.32;;;;;;;24.59;56.31;100370.28;5547003;32;34392;-59
2023/07/12 01:28:40;;;;;;;12.18;8.40;;;;;;;24.57;55.48;100366.37;5552762;32;33596;-59
2023/07/12 01:31:44;;;;;;;11.35;8.40;;;;;;;24.56;55.97;100356.56;5568582;32;33763;-60
2023/07/12 01:34:47;;;;;;;12.05;8.82;;;;;;;24.63;54.94;100342.13;5569465;32;33634;-61
2023/07/12 01:37:49;;;;;;;12.65;8.95;;;;;;;24.69;54.50;100341.41;5569289;32;33837;-62
2023/07/12 01:40:52;;;;;;;9.75;8.75;;;;;;;24.68;54.70;100345.34;5569481;32;34258;-61
2023/07/12 01:43:54;;;;;;;12.80;8.60;;;;;;;24.73;54.40;100363.38;5569213;32;33788;-61
2023/07/12 01:46:56;;;;;;;13.32;8.73;;;;;;;24.73;54.10;100353.19;5569265;32;33877;-61
2023/07/12 01:50:00;;;;;;;15.32;7.97;;;;;;;24.64;54.30;100360.97;5569029;32;34446;-62
2023/07/12 01:53:04;;;;;;;10.48;8.10;;;;;;;24.59;54.28;100364.81;5569176;32;33669;-61
2023/07/12 01:56:07;;;;;;;11.40;7.70;;;;;;;24.64;54.62;100365.66;5569090;32;34418;-61
2023/07/12 01:59:09;;;;;;;10.13;7.68;;;;;;;24.76;53.42;100362.63;5569127;32;33401;-61
2023/07/12 02:02:12;;;;;;;11.38;8.18;;;;;;;24.68;55.32;100375.47;5569045;32;33558;-61
2023/07/12 02:05:15;;;;;;;11.48;8.40;;;;;;;24.71;53.57;100371.22;5569030;32;33676;-61
2023/07/12 02:08:20;;;;;;;9.02;7.62;;;;;;;24.64;54.58;100366.44;5568910;32;33755;-61
2023/07/12 02:11:23;;;;;;;9.18;7.50;;;;;;;24.73;54.72;100368.87;5568807;32;33619;-61
2023/07/12 02:14:25;;;;;;;8.10;7.03;;;;;;;24.65;54.46;100375.44;5568638;31;33536;-61
2023/07/12 02:17:27;;;;;;;14.93;7.60;;;;;;;24.65;55.08;100367.22;5568738;32;34429;-61
2023/07/12 02:20:30;;;;;;;11.38;7.50;;;;;;;24.65;54.39;100368.00;5568647;32;33690;-61
2023/07/12 02:23:32;;;;;;;8.82;7.07;;;;;;;24.58;55.43;100365.19;5568586;32;34402;-61
2023/07/12 02:26:35;;;;;;;11.52;7.50;;;;;;;24.61;56.57;100358.97;5568432;32;34031;-61
2023/07/12 02:29:38;;;;;;;12.10;7.00;;;;;;;24.57;54.04;100356.19;5568765;32;34376;-61
2023/07/12 02:32:40;;;;;;;8.35;6.97;;;;;;;24.61;59.16;100342.53;5568464;31;34620;-61
2023/07/12 02:35:45;;;;;;;9.00;6.87;;;;;;;24.57;55.41;100337.00;5568550;31;34294;-61
2023/07/12 02:38:47;;;;;;;9.45;7.15;;;;;;;24.54;57.63;100328.75;5568595;32;34426;-61
2023/07/12 02:41:50;;;;;;;9.30;6.65;;;;;;;24.53;53.61;100322.47;5569553;32;33384;-61
2023/07/12 02:44:52;;;;;;;11.88;6.65;;;;;;;24.54;54.21;100331.50;5570950;32;34326;-61
2023/07/12 02:47:55;;;;;;;9.15;7.22;;;;;;;24.46;55.22;100327.88;5570862;32;33710;-61
2023/07/12 02:50:57;;;;;;;11.98;6.82;;;;;;;24.46;55.55;100336.09;5570686;32;33744;-61
2023/07/12 02:53:59;;;;;;;7.53;6.37;;;;;;;24.36;59.14;100336.75;5570664;32;33687;-61
2023/07/12 02:57:03;;;;;;;10.02;6.87;;;;;;;24.41;54.60;100335.66;5570730;32;33709;-61
2023/07/12 03:00:06;;;;;;;12.25;7.35;;;;;;;24.43;55.57;100334.09;5570712;32;34408;-61
2023/07/12 03:03:09;;;;;;;12.02;7.05;;;;;;;24.38;54.44;100329.72;5569739;32;34231;-61
2023/07/12 03:06:11;;;;;;;9.43;7.10;;;;;;;24.38;54.98;100326.97;5570504;32;34847;-61
2023/07/12 03:09:14;;;;;;;13.68;6.95;;;;;;;24.41;56.55;100324.69;5570763;32;34350;-62
2023/07/12 03:12:17;;;;;;;16.92;6.87;;;;;;;24.36;56.14;100312.88;5570579;32;33662;-61
2023/07/12 03:15:19;;;;;;;10.55;6.60;;;;;;;24.36;55.40;100312.09;5570505;32;33714;-61
2023/07/12 03:18:23;;;;;;;7.68;6.32;;;;;;;24.32;54.62;100320.25;5570524;32;34417;-61
2023/07/12 03:21:26;;;;;;;13.13;6.87;;;;;;;24.41;54.18;100316.47;5570640;32;34339;-61
2023/07/12 03:24:28;;;;;;;14.85;6.57;;;;;;;24.35;54.22;100324.22;5570197;32;33540;-61
2023/07/12 03:27:30;;;;;;;10.90;7.15;;;;;;;24.39;53.62;100316.81;5570487;32;34468;-61
2023/07/12 03:30:33;;;;;;;10.55;6.47;;;;;;;24.39;54.82;100325.81;5570354;32;34767;-61
2023/07/12 03:33:36;;;;;;;11.07;6.37;;;;;;;24.33;54.72;100332.78;5570420;32;33836;-61
2023/07/12 03:36:39;;;;;;;9.45;6.03;;;;;;;24.46;53.89;100335.31;5570588;32;33651;-61
2023/07/12 03:39:41;;;;;;;9.20;6.62;;;;;;;24.44;54.49;100329.44;5570335;32;34366;-62
2023/07/12 03:42:43;;;;;;;9.02;6.20;;;;;;;24.46;56.54;100338.03;5570398;32;34395;-61
2023/07/12 03:45:46;;;;;;;11.57;6.95;;;;;;;24.53;54.37;100327.16;5570117;32;34392;-61
2023/07/12 03:48:48;;;;;;;8.98;6.05;;;;;;;24.53;56.46;100321.69;5570285;32;33733;-61
2023/07/12 03:51:53;;;;;;;12.07;7.13;;;;;;;24.58;53.87;100327.63;5570131;32;34407;-61
2023/07/12 03:54:55;;;;;;;8.45;6.18;;;;;;;24.67;53.66;100332.81;5569777;32;33697;-60
2023/07/12 03:57:57;;;;;;;8.70;6.80;;;;;;;24.64;53.99;100344.50;5570183;32;33133;-60
2023/07/12 04:01:05;;;;;;;14.05;6.97;;;;;;;24.63;54.46;100336.66;5570182;32;33964;-61
2023/07/12 04:04:08;;;;;;;9.50;6.82;;;;;;;24.61;55.23;100329.59;5569944;32;34363;-60
2023/07/12 04:07:10;;;;;;;13.90;7.03;;;;;;;24.65;56.03;100342.56;5570142;32;33730;-61
2023/07/12 04:10:13;;;;;;;9.77;7.10;;;;;;;24.65;55.12;100337.06;5570019;32;33898;-60
2023/07/12 04:13:15;;;;;;;12.40;6.50;;;;;;;24.79;55.12;100334.47;5569868;32;33756;-60
2023/07/12 04:16:18;;;;;;;7.45;6.65;;;;;;;24.75;53.53;100350.88;5570007;32;33672;-60
2023/07/12 04:19:20;;;;;;;9.40;6.37;;;;;;;24.77;53.64;100356.00;5570110;32;33711;-60
2023/07/12 04:22:23;;;;;;;9.32;6.87;;;;;;;24.75;56.83;100350.88;5569998;32;34334;-60
2023/07/12 04:25:25;;;;;;;12.80;7.32;;;;;;;24.76;54.82;100351.66;5570051;32;33659;-60
2023/07/12 04:28:28;;;;;;;13.45;6.68;;;;;;;24.77;54.29;100343.06;5569804;32;34422;-60
2023/07/12 04:31:30;;;;;;;11.48;7.25;;;;;;;24.75;54.63;100339.13;5569904;32;33784;-60
2023/07/12 04:34:33;;;;;;;9.18;6.62;;;;;;;24.55;54.74;100353.03;5569802;32;33261;-60
2023/07/12 04:37:48;;;;;;;11.23;7.10;;;;;;;24.65;55.19;100332.37;5569823;32;33879;-60
2023/07/12 04:40:54;;;;;;;10.57;7.05;;;;;;;24.61;55.61;100302.19;5569936;32;33616;-60
2023/07/12 04:43:56;;;;;;;8.77;6.60;;;;;;;24.74;55.59;100310.94;5569767;32;33777;-60
2023/07/12 04:46:59;;;;;;;14.07;7.10;;;;;;;24.75;54.63;100328.94;5569830;32;33749;-60
2023/07/12 04:50:03;;;;;;;9.95;6.50;;;;;;;24.82;56.88;100320.00;5569807;32;34363;-60
2023/07/12 04:53:06;;;;;;;11.33;7.57;;;;;;;24.91;54.24;100300.50;5569748;32;34400;-61
2023/07/12 04:56:08;;;;;;;8.90;6.53;;;;;;;24.99;54.19;100305.66;5569442;32;34531;-60
2023/07/12 05:04:16;;;;;;;11.60;6.87;;;;;;;25.35;53.15;100318.87;5583637;31;34639;-60
2023/07/12 05:07:19;;;;;;;9.63;6.60;;;;;;;24.87;54.64;100325.16;5584104;31;33463;-58
2023/07/12 05:10:21;;;;;;;10.80;6.90;;;;;;;24.81;58.01;100334.88;5584049;31;33633;-59
2023/07/12 05:22:07;;;;;;;11.30;7.32;;;;;;;25.03;55.86;100330.34;5583423;32;34967;-58
2023/07/12 05:25:10;;;;;;;10.20;6.80;;;;;;;25.00;54.72;100326.44;5583758;32;34231;-58
2023/07/12 05:28:12;;;;;;;8.90;6.57;;;;;;;25.13;55.23;100326.16;5583682;32;33749;-58
2023/07/12 05:31:16;;;;;;;9.88;7.28;;;;;;;25.22;54.70;100334.84;5583806;31;34336;-59
2023/07/12 05:34:18;;;;;;;8.82;7.00;;;;;;;25.21;53.64;100325.84;5583571;31;34427;-59
2023/07/12 05:37:20;;;;;;;10.03;6.93;;;;;;;25.25;57.24;100318.41;5583541;32;33542;-58
2023/07/12 05:40:24;;;;;;;11.10;6.87;;;;;;;25.23;54.15;100311.72;5583427;31;34244;-59
2023/07/12 05:43:28;;;;;;;9.80;7.07;;;;;;;25.31;54.67;100327.88;5583659;32;33529;-58
2023/07/12 05:46:30;;;;;;;10.35;7.00;;;;;;;25.48;54.94;100320.12;5583525;31;33781;-59
2023/07/12 05:49:32;;;;;;;10.93;6.70;;;;;;;25.55;55.84;100325.66;5583443;31;34440;-58
2023/07/12 05:52:35;;;;;;;12.07;7.65;;;;;;;25.57;52.61;100306.88;5583439;32;33600;-58
2023/07/12 05:55:37;;;;;;;11.12;7.20;;;;;;;25.59;55.66;100306.47;5583355;31;33650;-59
2023/07/12 05:58:40;;;;;;;10.68;6.90;;;;;;;25.64;52.92;100317.88;5583589;32;33645;-59
2023/07/12 06:01:44;;;;;;;12.68;7.57;;;;;;;25.69;51.66;100313.97;5582248;31;34394;-59
2023/07/12 06:04:47;;;;;;;15.18;7.40;;;;;;;25.88;50.33;100310.19;5581894;31;33654;-59
2023/07/12 06:07:50;;;;;;;9.18;7.35;;;;;;;25.98;52.32;100301.97;5583160;32;33645;-58
2023/07/12 06:10:53;;;;;;;16.77;7.57;;;;;;;25.95;53.29;100307.44;5572332;32;33233;-59
2023/07/12 06:13:56;;;;;;;8.25;6.68;;;;;;;26.10;51.50;100300.84;5570222;32;33664;-58
2023/07/12 06:16:59;;;;;;;13.65;7.70;;;;;;;26.15;50.59;100286.72;5570509;32;33568;-59
2023/07/12 06:20:03;;;;;;;10.52;7.32;;;;;;;26.22;50.78;100274.97;5570081;32;33614;-60
2023/07/12 06:23:07;;;;;;;13.18;7.32;;;;;;;26.17;51.18;100280.84;5570357;32;33745;-60
2023/07/12 06:26:11;;;;;;;13.48;7.20;;;;;;;26.17;51.16;100275.34;5570209;32;33707;-59
2023/07/12 06:29:17;;;;;;;14.40;7.68;;;;;;;26.25;51.14;100261.22;5570146;32;33750;-60
2023/07/12 06:32:23;;;;;;;9.48;7.93;;;;;;;26.38;50.87;100249.88;5570098;32;34302;-60
2023/07/12 06:35:31;;;;;;;11.90;7.72;;;;;;;26.38;50.45;100250.66;5570276;32;33700;-59
2023/07/12 06:38:37;;;;;;;12.00;7.32;;;;;;;26.35;50.39;100256.16;5570128;32;34390;-59
2023/07/12 06:41:43;;;;;;;13.30;7.87;;;;;;;26.43;53.50;100266.00;5570086;32;33613;-59
2023/07/12 06:44:55;;;;;;;9.07;7.22;;;;;;;26.43;51.01;100263.25;5570030;31;33321;-59
2023/07/12 06:48:00;;;;;;;10.80;7.60;;;;;;;26.57;51.05;100257.78;5569944;32;33622;-60
2023/07/12 06:51:07;;;;;;;11.00;7.97;;;;;;;26.57;49.95;100251.50;5570117;32;33782;-59
2023/07/12 06:54:19;;;;;;;12.55;7.62;;;;;;;26.58;50.10;100262.09;5569785;32;34397;-60
2023/07/12 06:57:23;;;;;;;11.07;7.68;;;;;;;26.63;50.06;100263.69;5569673;32;33693;-59
2023/07/12 07:00:29;;;;;;;10.63;7.35;;;;;;;26.67;48.83;100267.22;5569819;32;33882;-60
2023/07/12 07:03:36;;;;;;;15.20;7.97;;;;;;;26.75;49.61;100268.00;5569736;32;33709;-60
2023/07/12 07:06:48;;;;;;;13.65;7.70;;;;;;;26.80;48.99;100268.38;5569865;32;33579;-59
2023/07/12 07:09:52;;;;;;;10.20;7.30;;;;;;;26.99;48.98;100258.97;5569793;32;33572;-60
2023/07/12 07:13:00;;;;;;;16.27;9.43;;;;;;;27.05;49.48;100251.88;5569888;32;34244;-59
2023/07/12 07:16:10;;;;;;;16.50;9.27;;;;;;;27.24;47.69;100245.16;5569709;32;33600;-59
2023/07/12 07:19:18;;;;;;;12.10;8.23;;;;;;;27.16;47.88;100233.41;5569660;32;34341;-59
2023/07/12 07:22:28;;;;;;;15.68;8.18;;;;;;;27.16;48.53;100229.88;5568634;32;34188;-59
2023/07/12 07:25:34;;;;;;;10.70;7.80;;;;;;;27.28;48.31;100215.66;5569694;32;33684;-59
2023/07/12 07:28:41;;;;;;;13.00;8.35;;;;;;;27.29;49.23;100206.25;5569774;32;33564;-60
2023/07/12 07:31:49;;;;;;;16.50;8.45;;;;;;;27.48;48.92;100190.44;5569624;32;34403;-60
2023/07/12 07:34:55;;;;;;;11.40;7.78;;;;;;;27.49;48.33;100187.28;5569629;32;34424;-61
2023/07/12 07:38:01;;;;;;;14.05;8.60;;;;;;;27.54;48.82;100183.34;5569464;32;33540;-60
2023/07/12 07:41:11;;;;;;;15.75;8.60;;;;;;;27.63;49.60;100183.69;5569606;32;33574;-61
2023/07/12 07:44:33;;;;;;;15.77;8.35;;;;;;;27.64;49.28;100177.75;5567705;32;34319;-60
2023/07/12 07:47:38;;;;;;;15.98;8.43;;;;;;;27.75;48.79;100168.66;5569449;32;33753;-61
2023/07/12 07:50:43;;;;;;;;;;;;;;;27.82;48.65;100160.41;5569807;32;34335;-61
2023/07/12 07:53:46;;;;;;;15.88;8.90;;;;;;;27.84;48.83;100156.03;5569613;32;34396;-60
2023/07/12 07:56:50;;;;;;;93.72;15.20;;;;;;;27.70;48.31;100149.81;5569450;32;33604;-60
2023/07/12 07:59:53;;;;;;;36.33;9.50;;;;;;;27.78;49.00;100143.09;5569160;32;33639;-60
2023/07/12 08:02:58;;;;;;;24.95;10.13;;;;;;;27.83;48.31;100139.94;5569406;32;34274;-60
2023/07/12 08:06:06;;;;;;;14.15;8.80;;;;;;;27.90;48.59;100136.34;5569347;32;34554;-61
2023/07/12 08:09:09;;;;;;;15.15;9.05;;;;;;;28.03;48.72;100135.47;5569436;32;33562;-60
2023/07/12 08:12:14;;;;;;;15.30;9.65;;;;;;;28.09;48.54;100133.84;5569306;32;33661;-60
2023/07/12 08:15:18;;;;;;;15.63;9.03;;;;;;;28.13;48.17;100125.53;5569331;32;33711;-60
2023/07/12 08:18:23;;;;;;;14.45;9.13;;;;;;;28.08;48.78;100124.03;5569239;32;33647;-61
2023/07/12 08:21:26;;;;;;;15.13;10.30;;;;;;;28.16;49.10;100116.47;5569326;32;34291;-60
2023/07/12 08:24:30;;;;;;;15.15;10.05;;;;;;;28.20;49.80;100108.94;5569037;32;33522;-60
2023/07/12 08:27:35;;;;;;;19.83;10.18;;;;;;;28.18;49.92;100105.84;5569094;32;34416;-60
2023/07/12 08:30:40;;;;;;;17.23;9.85;;;;;;;28.10;50.25;100096.03;5569180;32;33696;-60
2023/07/12 08:33:44;;;;;;;15.65;10.05;;;;;;;28.17;50.37;100097.94;5568678;32;33616;-61
2023/07/12 08:36:48;;;;;;;15.68;10.68;;;;;;;28.09;50.94;100098.03;5569087;32;33434;-59
2023/07/12 08:39:52;;;;;;;18.17;10.32;;;;;;;28.03;50.68;100104.38;5568738;32;33705;-59
2023/07/12 08:42:59;;;;;;;14.90;10.13;;;;;;;28.08;51.23;100104.72;5568972;32;33693;-59
2023/07/12 08:46:12;;;;;;;19.08;10.90;;;;;;;28.21;50.81;100106.97;5568833;32;33716;-59
2023/07/12 08:49:17;;;;;;;15.05;10.02;;;;;;;28.32;50.34;100113.19;5569007;32;33700;-59
2023/07/12 08:52:26;;;;;;;15.50;10.07;;;;;;;28.36;50.66;100119.44;5568696;32;33699;-59
2023/07/12 08:55:33;;;;;;;13.35;10.23;;;;;;;28.38;51.10;100108.81;5568702;32;34246;-59
2023/07/12 08:58:42;;;;;;;18.35;10.65;;;;;;;28.51;50.41;100115.41;5568359;32;35043;-59
2023/07/12 09:01:47;;;;;;;16.23;10.65;;;;;;;28.52;51.46;100119.72;5568485;32;33739;-59
2023/07/12 09:04:52;;;;;;;14.13;10.35;;;;;;;28.70;51.82;100121.50;5568607;32;33737;-59
2023/07/12 09:07:59;;;;;;;;;;;;;;;28.74;51.08;100120.28;5568865;32;33643;-59
2023/07/12 09:11:01;;;;;;;13.90;10.80;;;;;;;28.68;50.94;100132.19;5568449;32;33964;-59
2023/07/12 09:14:03;;;;;;;14.98;10.30;;;;;;;28.78;50.82;100139.56;5568388;32;33392;-59
2023/07/12 09:17:22;;;;;;;16.52;11.10;;;;;;;28.82;50.55;100145.81;5568499;32;33637;-59
2023/07/12 09:20:27;;;;;;;13.52;10.55;;;;;;;28.97;50.46;100141.72;5568165;32;33715;-59
2023/07/12 09:23:41;;;;;;;19.25;10.85;;;;;;;28.92;50.25;100149.66;5568239;32;33540;-59
2023/07/12 09:26:44;;;;;;;17.37;10.35;;;;;;;28.99;50.73;100138.53;5568164;32;33533;-59
2023/07/12 09:29:46;;;;;;;16.98;10.90;;;;;;;28.97;49.77;100140.91;5568021;32;33419;-59
2023/07/12 09:32:49;;;;;;;17.35;11.18;;;;;;;28.94;50.26;100137.03;5568143;32;33596;-59
2023/07/12 09:35:52;;;;;;;14.68;10.38;;;;;;;29.03;50.71;100139.31;5567975;32;34193;-59
2023/07/12 09:39:05;;;;;;;13.43;9.95;;;;;;;29.07;51.27;100144.78;5567755;32;33749;-59
2023/07/12 09:42:11;;;;;;;13.80;10.68;;;;;;;29.15;49.75;100154.56;5585978;31;33577;-59
2023/07/12 09:45:14;;;;;;;18.25;11.55;;;;;;;29.25;49.76;100150.88;5588261;31;33545;-59
2023/07/12 09:48:27;;;;;;;15.70;10.75;;;;;;;29.27;48.91;100160.31;5589999;31;33243;-62
2023/07/12 09:51:40;;;;;;;16.65;11.38;;;;;;;29.32;49.46;100170.13;5589849;31;34260;-62
2023/07/12 09:54:43;;;;;;;12.82;11.20;;;;;;;29.31;49.67;100162.25;5589977;31;33735;-62
2023/07/12 09:58:09;;;;;;;15.48;10.93;;;;;;;29.31;50.43;100160.28;5589567;31;33496;-62
2023/07/12 10:01:23;;;;;;;13.57;11.00;;;;;;;29.23;50.26;100154.03;5589733;31;34278;-62
2023/07/12 10:04:45;;;;;;;;;;;;;;;29.16;51.20;100148.59;5590032;31;34362;-62
2023/07/12 10:07:57;;;;;;;17.25;10.98;;;;;;;29.15;51.07;100149.03;5589675;31;34627;-62
2023/07/12 10:11:31;;;;;;;17.50;11.65;;;;;;;29.17;51.41;100147.44;5589686;31;33535;-62
2023/07/12 10:14:38;;;;;;;13.70;11.20;;;;;;;29.19;51.22;100130.44;5589358;31;33122;-62
2023/07/12 10:17:43;;;;;;;14.45;11.00;;;;;;;29.15;51.13;100132.47;5589826;31;34003;-62
2023/07/12 10:20:48;;;;;;;14.63;11.15;;;;;;;29.18;51.21;100135.19;5589848;31;33662;-62
2023/07/12 10:24:03;;;;;;;15.23;11.55;;;;;;;29.25;51.43;100140.62;5589709;31;33765;-62
2023/07/12 10:27:17;;;;;;;12.65;11.20;;;;;;;29.36;51.06;100128.66;5589829;31;33424;-62
2023/07/12 10:30:24;;;;;;;12.27;10.47;;;;;;;29.34;50.94;100123.56;5589727;31;33626;-62
2023/07/12 10:33:35;;;;;;;17.37;11.85;;;;;;;29.50;51.26;100120.97;5589750;31;34462;-62
2023/07/12 10:36:38;;;;;;;17.17;11.45;;;;;;;29.40;50.48;100113.59;5589829;31;34488;-62
2023/07/12 10:39:41;;;;;;;15.88;11.82;;;;;;;29.43;51.50;100112.75;5589500;31;34371;-62
2023/07/12 10:42:50;;;;;;;;;;;;;;;29.45;52.59;100113.12;5590038;31;33592;-62
